sensor_id;sensor_type;location;lat;lon;timestamp;temperature;humidity
76470;DHT22;65305;52.870;13.660;2023-02-28T00:00:21;19.10;35.70
76470;DHT22;65305;52.870;13.660;2023-02-28T00:08:53;19.20;35.70
76470;DHT22;65305;52.870;13.660;2023-02-28T00:11:20;19.20;35.60
76470;DHT22;65305;52.870;13.660;2023-02-28T00:13:47;19.20;35.50
76470;DHT22;65305;52.870;13.660;2023-02-28T00:16:15;19.30;35.50
76470;DHT22;65305;52.870;13.660;2023-02-28T00:18:42;19.30;35.50
76470;DHT22;65305;52.870;13.660;2023-02-28T00:21:08;19.30;35.40
76470;DHT22;65305;52.870;13.660;2023-02-28T00:23:35;19.30;35.40
76470;DHT22;65305;52.870;13.660;2023-02-28T00:26:01;19.40;35.30
76470;DHT22;65305;52.870;13.660;2023-02-28T00:28:28;19.40;35.30
76470;DHT22;65305;52.870;13.660;2023-02-28T00:30:54;19.40;35.30
76470;DHT22;65305;52.870;13.660;2023-02-28T00:33:21;19.50;35.20
76470;DHT22;65305;52.870;13.660;2023-02-28T00:35:47;19.50;35.10
76470;DHT22;65305;52.870;13.660;2023-02-28T00:38:14;19.50;35.10
76470;DHT22;65305;52.870;13.660;2023-02-28T00:40:41;19.50;35.10
76470;DHT22;65305;52.870;13.660;2023-02-28T00:43:07;19.60;35.10
76470;DHT22;65305;52.870;13.660;2023-02-28T00:45:34;19.60;35.00
76470;DHT22;65305;52.870;13.660;2023-02-28T00:48:00;19.70;35.00
76470;DHT22;65305;52.870;13.660;2023-02-28T00:50:27;19.70;34.90
76470;DHT22;65305;52.870;13.660;2023-02-28T00:52:53;19.70;34.90
76470;DHT22;65305;52.870;13.660;2023-02-28T00:55:20;19.70;34.90
76470;DHT22;65305;52.870;13.660;2023-02-28T00:57:46;19.70;34.80
76470;DHT22;65305;52.870;13.660;2023-02-28T01:00:12;19.80;34.80
76470;DHT22;65305;52.870;13.660;2023-02-28T01:02:39;19.90;34.70
76470;DHT22;65305;52.870;13.660;2023-02-28T01:05:05;19.90;34.70
76470;DHT22;65305;52.870;13.660;2023-02-28T01:07:32;19.90;34.70
76470;DHT22;65305;52.870;13.660;2023-02-28T01:09:59;19.90;34.70
76470;DHT22;65305;52.870;13.660;2023-02-28T01:12:25;19.90;34.60
76470;DHT22;65305;52.870;13.660;2023-02-28T01:14:52;19.90;34.60
76470;DHT22;65305;52.870;13.660;2023-02-28T01:17:18;20.00;34.60
76470;DHT22;65305;52.870;13.660;2023-02-28T01:19:45;20.00;34.50
76470;DHT22;65305;52.870;13.660;2023-02-28T01:22:11;20.00;34.50
76470;DHT22;65305;52.870;13.660;2023-02-28T01:24:37;20.00;34.40
76470;DHT22;65305;52.870;13.660;2023-02-28T01:27:04;20.00;34.40
76470;DHT22;65305;52.870;13.660;2023-02-28T01:29:30;20.00;34.40
76470;DHT22;65305;52.870;13.660;2023-02-28T01:31:57;20.10;34.40
76470;DHT22;65305;52.870;13.660;2023-02-28T01:34:25;20.10;34.30
76470;DHT22;65305;52.870;13.660;2023-02-28T01:36:51;20.10;34.30
76470;DHT22;65305;52.870;13.660;2023-02-28T01:39:18;20.10;34.20
76470;DHT22;65305;52.870;13.660;2023-02-28T01:41:44;20.20;34.20
76470;DHT22;65305;52.870;13.660;2023-02-28T01:46:56;20.30;34.20
76470;DHT22;65305;52.870;13.660;2023-02-28T01:49:23;20.30;34.10
76470;DHT22;65305;52.870;13.660;2023-02-28T01:51:50;20.30;34.10
76470;DHT22;65305;52.870;13.660;2023-02-28T01:54:27;20.30;34.10
76470;DHT22;65305;52.870;13.660;2023-02-28T01:57:00;20.30;34.00
76470;DHT22;65305;52.870;13.660;2023-02-28T01:59:35;20.30;34.00
76470;DHT22;65305;52.870;13.660;2023-02-28T02:02:06;20.40;34.00
76470;DHT22;65305;52.870;13.660;2023-02-28T02:04:35;20.40;33.90
76470;DHT22;65305;52.870;13.660;2023-02-28T02:07:07;20.50;33.90
76470;DHT22;65305;52.870;13.660;2023-02-28T02:09:34;20.50;33.90
76470;DHT22;65305;52.870;13.660;2023-02-28T02:12:02;20.50;33.80
76470;DHT22;65305;52.870;13.660;2023-02-28T02:17:17;20.50;33.70
76470;DHT22;65305;52.870;13.660;2023-02-28T02:20:26;20.50;33.70
76470;DHT22;65305;52.870;13.660;2023-02-28T02:36:11;20.70;33.50
76470;DHT22;65305;52.870;13.660;2023-02-28T02:41:18;20.70;33.40
76470;DHT22;65305;52.870;13.660;2023-02-28T02:44:06;20.70;33.40
76470;DHT22;65305;52.870;13.660;2023-02-28T02:46:45;20.70;33.30
76470;DHT22;65305;52.870;13.660;2023-02-28T02:49:17;20.70;33.40
76470;DHT22;65305;52.870;13.660;2023-02-28T02:54:47;20.30;33.70
76470;DHT22;65305;52.870;13.660;2023-02-28T02:57:36;19.70;32.90
76470;DHT22;65305;52.870;13.660;2023-02-28T03:00:23;19.40;32.80
76470;DHT22;65305;52.870;13.660;2023-02-28T03:02:56;19.00;33.00
76470;DHT22;65305;52.870;13.660;2023-02-28T03:05:34;18.70;33.20
76470;DHT22;65305;52.870;13.660;2023-02-28T03:08:47;18.40;33.30
76470;DHT22;65305;52.870;13.660;2023-02-28T03:17:44;17.80;34.00
76470;DHT22;65305;52.870;13.660;2023-02-28T03:20:23;17.50;34.20
76470;DHT22;65305;52.870;13.660;2023-02-28T03:22:59;17.40;34.40
76470;DHT22;65305;52.870;13.660;2023-02-28T03:25:33;17.20;34.50
76470;DHT22;65305;52.870;13.660;2023-02-28T03:33:17;16.80;35.00
76470;DHT22;65305;52.870;13.660;2023-02-28T03:36:01;16.70;35.20
76470;DHT22;65305;52.870;13.660;2023-02-28T03:38:33;16.50;35.30
76470;DHT22;65305;52.870;13.660;2023-02-28T03:43:39;16.30;35.60
76470;DHT22;65305;52.870;13.660;2023-02-28T03:46:09;16.20;35.80
76470;DHT22;65305;52.870;13.660;2023-02-28T03:48:39;16.10;35.90
76470;DHT22;65305;52.870;13.660;2023-02-28T03:51:07;16.00;36.10
76470;DHT22;65305;52.870;13.660;2023-02-28T03:53:50;15.80;36.20
76470;DHT22;65305;52.870;13.660;2023-02-28T03:56:23;15.80;36.30
76470;DHT22;65305;52.870;13.660;2023-02-28T03:58:54;15.60;36.50
76470;DHT22;65305;52.870;13.660;2023-02-28T04:01:38;15.60;36.60
76470;DHT22;65305;52.870;13.660;2023-02-28T04:04:07;15.50;36.80
76470;DHT22;65305;52.870;13.660;2023-02-28T04:06:34;15.30;36.90
76470;DHT22;65305;52.870;13.660;2023-02-28T04:09:01;15.30;37.00
76470;DHT22;65305;52.870;13.660;2023-02-28T04:14:01;15.00;37.30
76470;DHT22;65305;52.870;13.660;2023-02-28T04:16:28;15.00;37.40
76470;DHT22;65305;52.870;13.660;2023-02-28T04:18:55;14.90;37.50
76470;DHT22;65305;52.870;13.660;2023-02-28T04:21:28;14.80;37.60
76470;DHT22;65305;52.870;13.660;2023-02-28T04:23:55;14.70;37.80
76470;DHT22;65305;52.870;13.660;2023-02-28T04:26:22;14.60;37.90
76470;DHT22;65305;52.870;13.660;2023-02-28T04:28:48;14.50;38.00
76470;DHT22;65305;52.870;13.660;2023-02-28T04:31:15;14.50;38.00
76470;DHT22;65305;52.870;13.660;2023-02-28T04:33:41;14.40;38.20
76470;DHT22;65305;52.870;13.660;2023-02-28T04:36:08;14.30;38.30
76470;DHT22;65305;52.870;13.660;2023-02-28T04:38:37;14.20;38.40
76470;DHT22;65305;52.870;13.660;2023-02-28T04:41:04;14.10;38.50
76470;DHT22;65305;52.870;13.660;2023-02-28T04:43:31;14.10;38.60
76470;DHT22;65305;52.870;13.660;2023-02-28T04:45:58;14.00;38.70
76470;DHT22;65305;52.870;13.660;2023-02-28T04:48:28;13.90;38.80
76470;DHT22;65305;52.870;13.660;2023-02-28T04:50:54;13.90;38.90
76470;DHT22;65305;52.870;13.660;2023-02-28T04:53:21;13.80;39.00
76470;DHT22;65305;52.870;13.660;2023-02-28T04:55:47;13.70;39.10
76470;DHT22;65305;52.870;13.660;2023-02-28T04:58:17;13.60;39.20
76470;DHT22;65305;52.870;13.660;2023-02-28T05:00:43;13.60;39.30
76470;DHT22;65305;52.870;13.660;2023-02-28T05:03:09;13.50;39.40
76470;DHT22;65305;52.870;13.660;2023-02-28T05:05:36;13.50;39.50
76470;DHT22;65305;52.870;13.660;2023-02-28T05:08:02;13.40;39.60
76470;DHT22;65305;52.870;13.660;2023-02-28T05:10:31;13.30;39.70
76470;DHT22;65305;52.870;13.660;2023-02-28T05:12:58;13.30;39.80
76470;DHT22;65305;52.870;13.660;2023-02-28T05:15:24;13.20;39.90
76470;DHT22;65305;52.870;13.660;2023-02-28T05:17:50;13.10;40.00
76470;DHT22;65305;52.870;13.660;2023-02-28T05:20:17;13.10;40.00
76470;DHT22;65305;52.870;13.660;2023-02-28T05:22:43;13.00;40.20
76470;DHT22;65305;52.870;13.660;2023-02-28T05:25:10;13.00;40.20
76470;DHT22;65305;52.870;13.660;2023-02-28T05:27:38;12.90;40.30
76470;DHT22;65305;52.870;13.660;2023-02-28T05:30:05;12.90;40.40
76470;DHT22;65305;52.870;13.660;2023-02-28T05:32:32;12.80;40.50
76470;DHT22;65305;52.870;13.660;2023-02-28T05:34:58;12.80;40.50
76470;DHT22;65305;52.870;13.660;2023-02-28T05:37:25;12.70;40.60
76470;DHT22;65305;52.870;13.660;2023-02-28T05:39:51;12.60;40.70
76470;DHT22;65305;52.870;13.660;2023-02-28T05:42:17;12.50;40.80
76470;DHT22;65305;52.870;13.660;2023-02-28T05:44:44;12.50;40.90
76470;DHT22;65305;52.870;13.660;2023-02-28T05:47:10;12.50;41.00
76470;DHT22;65305;52.870;13.660;2023-02-28T05:49:41;12.50;41.10
76470;DHT22;65305;52.870;13.660;2023-02-28T05:52:07;12.40;41.10
76470;DHT22;65305;52.870;13.660;2023-02-28T05:54:34;12.30;41.20
76470;DHT22;65305;52.870;13.660;2023-02-28T05:57:01;12.30;41.30
76470;DHT22;65305;52.870;13.660;2023-02-28T05:59:27;12.20;41.40
76470;DHT22;65305;52.870;13.660;2023-02-28T06:01:53;12.20;41.40
76470;DHT22;65305;52.870;13.660;2023-02-28T06:04:21;12.10;41.50
76470;DHT22;65305;52.870;13.660;2023-02-28T06:06:48;12.10;41.60
76470;DHT22;65305;52.870;13.660;2023-02-28T06:09:14;12.00;41.60
76470;DHT22;65305;52.870;13.660;2023-02-28T06:11:41;12.00;41.70
76470;DHT22;65305;52.870;13.660;2023-02-28T06:14:07;11.90;41.80
76470;DHT22;65305;52.870;13.660;2023-02-28T06:16:40;11.90;41.90
76470;DHT22;65305;52.870;13.660;2023-02-28T06:19:07;11.90;41.90
76470;DHT22;65305;52.870;13.660;2023-02-28T06:21:34;11.80;42.00
76470;DHT22;65305;52.870;13.660;2023-02-28T06:24:00;11.70;42.10
76470;DHT22;65305;52.870;13.660;2023-02-28T06:26:27;11.70;42.10
76470;DHT22;65305;52.870;13.660;2023-02-28T06:28:54;11.60;42.20
76470;DHT22;65305;52.870;13.660;2023-02-28T06:31:20;11.60;42.20
76470;DHT22;65305;52.870;13.660;2023-02-28T06:33:48;11.50;42.30
76470;DHT22;65305;52.870;13.660;2023-02-28T06:36:15;11.50;42.40
76470;DHT22;65305;52.870;13.660;2023-02-28T06:38:41;11.50;42.50
76470;DHT22;65305;52.870;13.660;2023-02-28T06:41:08;11.40;42.60
76470;DHT22;65305;52.870;13.660;2023-02-28T06:43:37;11.40;42.60
76470;DHT22;65305;52.870;13.660;2023-02-28T06:46:06;11.40;42.70
76470;DHT22;65305;52.870;13.660;2023-02-28T06:48:32;11.30;42.70
76470;DHT22;65305;52.870;13.660;2023-02-28T06:51:06;11.20;42.80
76470;DHT22;65305;52.870;13.660;2023-02-28T06:53:33;11.20;42.90
76470;DHT22;65305;52.870;13.660;2023-02-28T06:55:59;11.10;42.90
76470;DHT22;65305;52.870;13.660;2023-02-28T06:58:29;11.10;43.00
76470;DHT22;65305;52.870;13.660;2023-02-28T07:00:56;11.10;43.10
76470;DHT22;65305;52.870;13.660;2023-02-28T07:03:22;11.00;43.10
76470;DHT22;65305;52.870;13.660;2023-02-28T07:05:49;11.00;43.10
76470;DHT22;65305;52.870;13.660;2023-02-28T07:08:15;11.00;43.20
76470;DHT22;65305;52.870;13.660;2023-02-28T07:10:42;10.90;43.20
76470;DHT22;65305;52.870;13.660;2023-02-28T07:13:08;10.90;43.30
76470;DHT22;65305;52.870;13.660;2023-02-28T07:15:35;10.90;43.40
76470;DHT22;65305;52.870;13.660;2023-02-28T07:18:02;10.80;43.40
76470;DHT22;65305;52.870;13.660;2023-02-28T07:20:29;10.80;43.50
76470;DHT22;65305;52.870;13.660;2023-02-28T07:22:56;10.70;43.60
76470;DHT22;65305;52.870;13.660;2023-02-28T07:25:26;10.70;43.60
76470;DHT22;65305;52.870;13.660;2023-02-28T07:27:53;10.70;43.60
76470;DHT22;65305;52.870;13.660;2023-02-28T07:30:19;10.60;43.70
76470;DHT22;65305;52.870;13.660;2023-02-28T07:32:46;10.60;43.70
76470;DHT22;65305;52.870;13.660;2023-02-28T07:35:13;10.50;43.90
76470;DHT22;65305;52.870;13.660;2023-02-28T07:37:44;10.50;43.90
76470;DHT22;65305;52.870;13.660;2023-02-28T07:40:10;10.50;43.90
76470;DHT22;65305;52.870;13.660;2023-02-28T07:42:40;10.40;44.00
76470;DHT22;65305;52.870;13.660;2023-02-28T07:45:08;10.40;44.00
76470;DHT22;65305;52.870;13.660;2023-02-28T07:47:38;10.30;44.10
76470;DHT22;65305;52.870;13.660;2023-02-28T07:50:05;10.30;44.10
76470;DHT22;65305;52.870;13.660;2023-02-28T07:52:31;10.30;44.20
76470;DHT22;65305;52.870;13.660;2023-02-28T07:54:58;10.20;44.20
76470;DHT22;65305;52.870;13.660;2023-02-28T07:57:24;10.20;44.30
76470;DHT22;65305;52.870;13.660;2023-02-28T07:59:51;10.20;44.30
76470;DHT22;65305;52.870;13.660;2023-02-28T08:02:18;10.10;44.40
76470;DHT22;65305;52.870;13.660;2023-02-28T08:04:44;10.10;44.40
76470;DHT22;65305;52.870;13.660;2023-02-28T08:07:15;10.10;44.50
76470;DHT22;65305;52.870;13.660;2023-02-28T08:09:42;10.00;44.50
76470;DHT22;65305;52.870;13.660;2023-02-28T08:12:09;10.00;44.60
76470;DHT22;65305;52.870;13.660;2023-02-28T08:14:35;10.00;44.60
76470;DHT22;65305;52.870;13.660;2023-02-28T08:17:02;10.00;44.70
76470;DHT22;65305;52.870;13.660;2023-02-28T08:19:29;9.90;44.70
76470;DHT22;65305;52.870;13.660;2023-02-28T08:21:55;9.90;44.80
76470;DHT22;65305;52.870;13.660;2023-02-28T08:24:22;9.80;44.80
76470;DHT22;65305;52.870;13.660;2023-02-28T08:26:49;9.80;44.90
76470;DHT22;65305;52.870;13.660;2023-02-28T08:29:15;9.80;44.90
76470;DHT22;65305;52.870;13.660;2023-02-28T08:31:41;9.80;44.90
76470;DHT22;65305;52.870;13.660;2023-02-28T08:34:08;9.70;45.00
76470;DHT22;65305;52.870;13.660;2023-02-28T08:36:34;9.70;45.00
76470;DHT22;65305;52.870;13.660;2023-02-28T08:39:01;9.60;45.10
76470;DHT22;65305;52.870;13.660;2023-02-28T08:41:27;9.60;45.10
76470;DHT22;65305;52.870;13.660;2023-02-28T08:43:53;9.60;45.10
76470;DHT22;65305;52.870;13.660;2023-02-28T08:46:20;9.60;45.20
76470;DHT22;65305;52.870;13.660;2023-02-28T08:48:46;9.50;45.20
76470;DHT22;65305;52.870;13.660;2023-02-28T08:51:15;9.50;45.30
76470;DHT22;65305;52.870;13.660;2023-02-28T08:53:48;9.50;45.30
76470;DHT22;65305;52.870;13.660;2023-02-28T08:56:17;9.40;45.40
76470;DHT22;65305;52.870;13.660;2023-02-28T08:58:45;9.40;45.40
76470;DHT22;65305;52.870;13.660;2023-02-28T09:01:13;9.40;45.50
76470;DHT22;65305;52.870;13.660;2023-02-28T09:03:40;9.40;45.50
76470;DHT22;65305;52.870;13.660;2023-02-28T09:06:12;9.40;45.50
76470;DHT22;65305;52.870;13.660;2023-02-28T09:08:39;9.40;45.50
76470;DHT22;65305;52.870;13.660;2023-02-28T09:11:06;9.30;45.60
76470;DHT22;65305;52.870;13.660;2023-02-28T09:13:33;9.30;45.70
76470;DHT22;65305;52.870;13.660;2023-02-28T09:16:00;9.20;45.70
76470;DHT22;65305;52.870;13.660;2023-02-28T09:18:27;9.20;45.70
76470;DHT22;65305;52.870;13.660;2023-02-28T09:20:53;9.20;45.80
76470;DHT22;65305;52.870;13.660;2023-02-28T09:23:20;9.20;45.80
76470;DHT22;65305;52.870;13.660;2023-02-28T09:25:50;9.20;45.80
76470;DHT22;65305;52.870;13.660;2023-02-28T09:28:17;9.10;45.90
76470;DHT22;65305;52.870;13.660;2023-02-28T09:30:47;9.10;45.90
76470;DHT22;65305;52.870;13.660;2023-02-28T09:33:14;9.00;45.90
76470;DHT22;65305;52.870;13.660;2023-02-28T09:35:41;9.00;46.00
76470;DHT22;65305;52.870;13.660;2023-02-28T09:38:09;9.00;46.00
76470;DHT22;65305;52.870;13.660;2023-02-28T09:40:46;9.00;46.10
76470;DHT22;65305;52.870;13.660;2023-02-28T09:43:14;9.00;46.10
76470;DHT22;65305;52.870;13.660;2023-02-28T09:45:42;9.00;46.20
76470;DHT22;65305;52.870;13.660;2023-02-28T09:48:16;8.90;46.20
76470;DHT22;65305;52.870;13.660;2023-02-28T09:50:46;8.90;46.20
76470;DHT22;65305;52.870;13.660;2023-02-28T09:53:25;8.90;46.20
76470;DHT22;65305;52.870;13.660;2023-02-28T09:56:08;8.90;46.30
76470;DHT22;65305;52.870;13.660;2023-02-28T10:01:28;8.80;46.40
76470;DHT22;65305;52.870;13.660;2023-02-28T10:03:55;8.80;46.40
76470;DHT22;65305;52.870;13.660;2023-02-28T10:06:28;8.80;46.50
76470;DHT22;65305;52.870;13.660;2023-02-28T10:11:23;8.70;46.50
76470;DHT22;65305;52.870;13.660;2023-02-28T10:13:55;8.70;46.60
76470;DHT22;65305;52.870;13.660;2023-02-28T10:16:44;8.60;46.60
76470;DHT22;65305;52.870;13.660;2023-02-28T10:19:19;8.60;46.70
76470;DHT22;65305;52.870;13.660;2023-02-28T10:22:31;8.60;46.70
76470;DHT22;65305;52.870;13.660;2023-02-28T10:24:47;8.60;46.70
76470;DHT22;65305;52.870;13.660;2023-02-28T10:27:18;8.60;46.80
76470;DHT22;65305;52.870;13.660;2023-02-28T10:29:48;8.50;46.80
76470;DHT22;65305;52.870;13.660;2023-02-28T10:32:16;8.50;46.90
76470;DHT22;65305;52.870;13.660;2023-02-28T10:34:44;8.50;46.90
76470;DHT22;65305;52.870;13.660;2023-02-28T10:37:11;8.50;47.00
76470;DHT22;65305;52.870;13.660;2023-02-28T10:39:40;8.50;47.00
76470;DHT22;65305;52.870;13.660;2023-02-28T10:42:28;8.40;47.00
76470;DHT22;65305;52.870;13.660;2023-02-28T10:45:09;8.40;47.10
76470;DHT22;65305;52.870;13.660;2023-02-28T10:47:40;8.40;47.10
76470;DHT22;65305;52.870;13.660;2023-02-28T10:50:28;8.40;47.10
76470;DHT22;65305;52.870;13.660;2023-02-28T10:52:54;8.30;47.20
76470;DHT22;65305;52.870;13.660;2023-02-28T10:55:25;8.30;47.20
76470;DHT22;65305;52.870;13.660;2023-02-28T10:57:52;8.30;47.30
76470;DHT22;65305;52.870;13.660;2023-02-28T11:00:20;8.30;47.30
76470;DHT22;65305;52.870;13.660;2023-02-28T11:02:48;8.30;47.40
76470;DHT22;65305;52.870;13.660;2023-02-28T11:05:31;8.30;47.40
76470;DHT22;65305;52.870;13.660;2023-02-28T11:08:10;8.20;47.50
76470;DHT22;65305;52.870;13.660;2023-02-28T11:10:39;8.20;47.50
76470;DHT22;65305;52.870;13.660;2023-02-28T11:13:05;8.20;47.50
76470;DHT22;65305;52.870;13.660;2023-02-28T11:15:33;8.20;47.50
76470;DHT22;65305;52.870;13.660;2023-02-28T11:20:38;8.10;47.60
76470;DHT22;65305;52.870;13.660;2023-02-28T11:23:05;8.10;47.70
76470;DHT22;65305;52.870;13.660;2023-02-28T11:25:38;8.10;47.70
76470;DHT22;65305;52.870;13.660;2023-02-28T11:28:06;8.10;47.70
76470;DHT22;65305;52.870;13.660;2023-02-28T11:30:34;8.00;47.80
76470;DHT22;65305;52.870;13.660;2023-02-28T11:33:01;8.00;47.80
76470;DHT22;65305;52.870;13.660;2023-02-28T11:35:30;8.00;47.80
76470;DHT22;65305;52.870;13.660;2023-02-28T11:38:00;8.00;47.90
76470;DHT22;65305;52.870;13.660;2023-02-28T11:40:46;8.00;47.90
76470;DHT22;65305;52.870;13.660;2023-02-28T11:48:38;8.00;48.00
76470;DHT22;65305;52.870;13.660;2023-02-28T11:51:18;7.90;48.00
76470;DHT22;65305;52.870;13.660;2023-02-28T11:59:01;7.90;48.20
76470;DHT22;65305;52.870;13.660;2023-02-28T12:07:01;7.80;48.20
76470;DHT22;65305;52.870;13.660;2023-02-28T12:12:19;7.80;48.30
76470;DHT22;65305;52.870;13.660;2023-02-28T12:14:58;7.80;48.40
76470;DHT22;65305;52.870;13.660;2023-02-28T12:20:17;7.80;48.30
76470;DHT22;65305;52.870;13.660;2023-02-28T12:27:56;7.60;48.40
76470;DHT22;65305;52.870;13.660;2023-02-28T12:30:24;7.60;48.50
76470;DHT22;65305;52.870;13.660;2023-02-28T12:32:53;7.60;48.60
76470;DHT22;65305;52.870;13.660;2023-02-28T12:35:26;7.60;48.60
76470;DHT22;65305;52.870;13.660;2023-02-28T12:40:22;7.60;48.70
76470;DHT22;65305;52.870;13.660;2023-02-28T12:42:50;7.50;48.60
76470;DHT22;65305;52.870;13.660;2023-02-28T12:45:19;7.50;48.70
76470;DHT22;65305;52.870;13.660;2023-02-28T12:47:48;7.50;48.70
76470;DHT22;65305;52.870;13.660;2023-02-28T12:50:17;7.50;48.70
76470;DHT22;65305;52.870;13.660;2023-02-28T12:53:00;7.50;48.70
76470;DHT22;65305;52.870;13.660;2023-02-28T12:55:31;7.50;48.70
76470;DHT22;65305;52.870;13.660;2023-02-28T13:06:03;7.50;48.80
76470;DHT22;65305;52.870;13.660;2023-02-28T13:08:38;7.50;48.90
76470;DHT22;65305;52.870;13.660;2023-02-28T13:11:22;7.40;48.90
76470;DHT22;65305;52.870;13.660;2023-02-28T13:13:55;7.40;48.90
76470;DHT22;65305;52.870;13.660;2023-02-28T13:16:23;7.40;48.90
76470;DHT22;65305;52.870;13.660;2023-02-28T13:18:49;7.40;48.90
76470;DHT22;65305;52.870;13.660;2023-02-28T13:21:23;7.40;48.90
76470;DHT22;65305;52.870;13.660;2023-02-28T13:28:59;7.30;49.00
76470;DHT22;65305;52.870;13.660;2023-02-28T13:31:26;7.30;49.00
76470;DHT22;65305;52.870;13.660;2023-02-28T13:38:50;7.20;49.10
76470;DHT22;65305;52.870;13.660;2023-02-28T13:44:00;7.20;49.00
76470;DHT22;65305;52.870;13.660;2023-02-28T13:46:32;7.20;49.00
76470;DHT22;65305;52.870;13.660;2023-02-28T13:51:47;7.20;49.20
76470;DHT22;65305;52.870;13.660;2023-02-28T13:56:45;7.20;49.30
76470;DHT22;65305;52.870;13.660;2023-02-28T14:01:51;7.20;49.30
76470;DHT22;65305;52.870;13.660;2023-02-28T14:06:50;7.10;49.40
76470;DHT22;65305;52.870;13.660;2023-02-28T14:09:20;7.10;49.40
76470;DHT22;65305;52.870;13.660;2023-02-28T14:11:49;7.10;49.40
76470;DHT22;65305;52.870;13.660;2023-02-28T14:16:58;7.10;49.50
76470;DHT22;65305;52.870;13.660;2023-02-28T14:19:28;7.00;49.50
76470;DHT22;65305;52.870;13.660;2023-02-28T14:24:29;7.00;49.50
76470;DHT22;65305;52.870;13.660;2023-02-28T14:32:29;7.00;49.60
76470;DHT22;65305;52.870;13.660;2023-02-28T14:37:43;7.00;49.60
76470;DHT22;65305;52.870;13.660;2023-02-28T14:40:17;7.00;49.70
76470;DHT22;65305;52.870;13.660;2023-02-28T14:42:47;7.00;49.70
76470;DHT22;65305;52.870;13.660;2023-02-28T14:45:17;7.00;49.70
76470;DHT22;65305;52.870;13.660;2023-02-28T14:47:44;6.90;49.80
76470;DHT22;65305;52.870;13.660;2023-02-28T14:50:18;7.00;49.80
76470;DHT22;65305;52.870;13.660;2023-02-28T14:52:45;6.90;49.80
76470;DHT22;65305;52.870;13.660;2023-02-28T14:55:16;7.00;49.90
76470;DHT22;65305;52.870;13.660;2023-02-28T14:57:51;6.90;49.90
76470;DHT22;65305;52.870;13.660;2023-02-28T15:00:25;6.90;50.00
76470;DHT22;65305;52.870;13.660;2023-02-28T15:02:52;6.90;49.90
76470;DHT22;65305;52.870;13.660;2023-02-28T15:05:23;6.90;50.00
76470;DHT22;65305;52.870;13.660;2023-02-28T15:08:00;6.90;50.00
76470;DHT22;65305;52.870;13.660;2023-02-28T15:10:27;6.80;50.00
76470;DHT22;65305;52.870;13.660;2023-02-28T15:12:58;6.80;50.10
76470;DHT22;65305;52.870;13.660;2023-02-28T15:15:39;6.80;50.10
76470;DHT22;65305;52.870;13.660;2023-02-28T15:18:08;6.80;50.10
76470;DHT22;65305;52.870;13.660;2023-02-28T15:20:41;6.80;50.10
76470;DHT22;65305;52.870;13.660;2023-02-28T15:23:08;6.80;50.20
76470;DHT22;65305;52.870;13.660;2023-02-28T15:25:35;6.80;50.20
76470;DHT22;65305;52.870;13.660;2023-02-28T15:28:01;6.80;50.20
76470;DHT22;65305;52.870;13.660;2023-02-28T15:30:29;6.80;50.30
76470;DHT22;65305;52.870;13.660;2023-02-28T15:33:05;6.70;50.30
76470;DHT22;65305;52.870;13.660;2023-02-28T15:35:37;6.70;50.30
76470;DHT22;65305;52.870;13.660;2023-02-28T15:38:18;6.70;50.40
76470;DHT22;65305;52.870;13.660;2023-02-28T15:40:45;6.70;50.50
76470;DHT22;65305;52.870;13.660;2023-02-28T15:43:29;6.70;50.40
76470;DHT22;65305;52.870;13.660;2023-02-28T15:46:03;6.70;50.50
76470;DHT22;65305;52.870;13.660;2023-02-28T15:48:31;6.70;50.50
76470;DHT22;65305;52.870;13.660;2023-02-28T15:51:02;6.70;50.50
76470;DHT22;65305;52.870;13.660;2023-02-28T15:53:34;6.70;50.60
76470;DHT22;65305;52.870;13.660;2023-02-28T15:56:03;6.60;50.60
76470;DHT22;65305;52.870;13.660;2023-02-28T15:58:31;6.60;50.60
76470;DHT22;65305;52.870;13.660;2023-02-28T16:01:04;6.70;50.70
76470;DHT22;65305;52.870;13.660;2023-02-28T16:03:39;6.60;50.70
76470;DHT22;65305;52.870;13.660;2023-02-28T16:06:19;6.60;50.80
76470;DHT22;65305;52.870;13.660;2023-02-28T16:08:48;6.60;50.80
76470;DHT22;65305;52.870;13.660;2023-02-28T16:11:17;6.60;50.90
76470;DHT22;65305;52.870;13.660;2023-02-28T16:13:44;6.60;50.80
76470;DHT22;65305;52.870;13.660;2023-02-28T16:16:15;6.60;50.90
76470;DHT22;65305;52.870;13.660;2023-02-28T16:18:42;6.60;51.00
76470;DHT22;65305;52.870;13.660;2023-02-28T16:21:08;6.60;51.10
76470;DHT22;65305;52.870;13.660;2023-02-28T16:23:34;6.50;51.10
76470;DHT22;65305;52.870;13.660;2023-02-28T16:26:02;6.50;51.20
76470;DHT22;65305;52.870;13.660;2023-02-28T16:28:35;6.50;51.10
76470;DHT22;65305;52.870;13.660;2023-02-28T16:31:03;6.50;51.20
76470;DHT22;65305;52.870;13.660;2023-02-28T16:33:30;6.50;51.20
76470;DHT22;65305;52.870;13.660;2023-02-28T16:35:57;6.50;51.20
76470;DHT22;65305;52.870;13.660;2023-02-28T16:38:23;6.50;51.30
76470;DHT22;65305;52.870;13.660;2023-02-28T16:40:51;6.50;51.30
76470;DHT22;65305;52.870;13.660;2023-02-28T16:43:18;6.50;51.40
76470;DHT22;65305;52.870;13.660;2023-02-28T16:45:46;6.50;51.40
76470;DHT22;65305;52.870;13.660;2023-02-28T16:48:14;6.40;51.50
76470;DHT22;65305;52.870;13.660;2023-02-28T16:50:41;6.50;51.50
76470;DHT22;65305;52.870;13.660;2023-02-28T16:53:08;6.40;51.50
76470;DHT22;65305;52.870;13.660;2023-02-28T16:55:34;6.40;51.50
76470;DHT22;65305;52.870;13.660;2023-02-28T16:58:02;6.40;51.60
76470;DHT22;65305;52.870;13.660;2023-02-28T17:00:29;6.40;51.70
76470;DHT22;65305;52.870;13.660;2023-02-28T17:02:55;6.40;52.00
76470;DHT22;65305;52.870;13.660;2023-02-28T17:05:22;6.40;51.80
76470;DHT22;65305;52.870;13.660;2023-02-28T17:07:49;6.40;51.80
76470;DHT22;65305;52.870;13.660;2023-02-28T17:10:17;6.40;51.90
76470;DHT22;65305;52.870;13.660;2023-02-28T17:12:43;6.40;52.00
76470;DHT22;65305;52.870;13.660;2023-02-28T17:15:10;6.30;52.10
76470;DHT22;65305;52.870;13.660;2023-02-28T17:17:37;6.30;52.10
76470;DHT22;65305;52.870;13.660;2023-02-28T17:20:04;6.30;52.10
76470;DHT22;65305;52.870;13.660;2023-02-28T17:22:31;6.30;52.00
76470;DHT22;65305;52.870;13.660;2023-02-28T17:24:58;6.30;52.10
76470;DHT22;65305;52.870;13.660;2023-02-28T17:27:24;6.30;52.20
76470;DHT22;65305;52.870;13.660;2023-02-28T17:29:51;6.30;52.20
76470;DHT22;65305;52.870;13.660;2023-02-28T17:32:17;6.30;52.30
76470;DHT22;65305;52.870;13.660;2023-02-28T17:34:44;6.30;52.50
76470;DHT22;65305;52.870;13.660;2023-02-28T17:37:11;6.30;52.30
76470;DHT22;65305;52.870;13.660;2023-02-28T17:39:38;6.30;52.30
76470;DHT22;65305;52.870;13.660;2023-02-28T17:42:04;6.30;52.50
76470;DHT22;65305;52.870;13.660;2023-02-28T17:44:31;6.20;52.50